sensor_id;sensor_type;location;lat;lon;timestamp;temperature;humidity
10419;DHT22;5256;48.728;9.140;2023-02-10T00:00:21;-5.20;99.90
10419;DHT22;5256;48.728;9.140;2023-02-10T00:02:46;-5.30;99.90
10419;DHT22;5256;48.728;9.140;2023-02-10T00:05:12;-5.40;99.90
10419;DHT22;5256;48.728;9.140;2023-02-10T00:07:37;-5.40;99.90
10419;DHT22;5256;48.728;9.140;2023-02-10T00:10:03;-5.40;99.90
10419;DHT22;5256;48.728;9.140;2023-02-10T00:12:29;-5.40;99.90
10419;DHT22;5256;48.728;9.140;2023-02-10T00:14:54;-5.20;99.90
10419;DHT22;5256;48.728;9.140;2023-02-10T00:17:20;-5.20;99.90
10419;DHT22;5256;48.728;9.140;2023-02-10T00:19:45;-5.10;99.90
10419;DHT22;5256;48.728;9.140;2023-02-10T00:22:11;-5.10;99.90
10419;DHT22;5256;48.728;9.140;2023-02-10T00:24:37;-5.10;99.90
10419;DHT22;5256;48.728;9.140;2023-02-10T00:27:05;-5.10;99.90
10419;DHT22;5256;48.728;9.140;2023-02-10T00:29:30;-5.20;99.90
10419;DHT22;5256;48.728;9.140;2023-02-10T00:31:57;-5.20;99.90
10419;DHT22;5256;48.728;9.140;2023-02-10T00:34:23;-5.20;99.90
10419;DHT22;5256;48.728;9.140;2023-02-10T00:36:49;-5.10;99.90
10419;DHT22;5256;48.728;9.140;2023-02-10T00:39:15;-5.20;99.90
10419;DHT22;5256;48.728;9.140;2023-02-10T00:41:41;-5.20;99.90
10419;DHT22;5256;48.728;9.140;2023-02-10T00:44:07;-5.30;99.90
10419;DHT22;5256;48.728;9.140;2023-02-10T00:46:33;-5.30;99.90
10419;DHT22;5256;48.728;9.140;2023-02-10T00:48:58;-5.30;99.90
10419;DHT22;5256;48.728;9.140;2023-02-10T00:51:24;-5.40;99.90
10419;DHT22;5256;48.728;9.140;2023-02-10T00:53:49;-5.50;99.90
10419;DHT22;5256;48.728;9.140;2023-02-10T00:56:17;-5.60;99.90
10419;DHT22;5256;48.728;9.140;2023-02-10T00:58:43;-5.60;99.90
10419;DHT22;5256;48.728;9.140;2023-02-10T01:01:09;-5.70;99.90
10419;DHT22;5256;48.728;9.140;2023-02-10T01:03:35;-5.70;99.90
10419;DHT22;5256;48.728;9.140;2023-02-10T01:06:01;-5.70;99.90
10419;DHT22;5256;48.728;9.140;2023-02-10T01:08:26;-5.80;99.90
10419;DHT22;5256;48.728;9.140;2023-02-10T01:13:25;-5.80;99.90
10419;DHT22;5256;48.728;9.140;2023-02-10T01:15:50;-5.80;99.90
10419;DHT22;5256;48.728;9.140;2023-02-10T01:18:16;-5.90;99.90
10419;DHT22;5256;48.728;9.140;2023-02-10T01:20:42;-5.90;99.90
10419;DHT22;5256;48.728;9.140;2023-02-10T01:23:08;-5.90;99.90
10419;DHT22;5256;48.728;9.140;2023-02-10T01:25:35;-6.00;99.90
10419;DHT22;5256;48.728;9.140;2023-02-10T01:28:01;-5.90;99.90
10419;DHT22;5256;48.728;9.140;2023-02-10T01:30:27;-5.80;99.90
10419;DHT22;5256;48.728;9.140;2023-02-10T01:32:53;-5.80;99.90
10419;DHT22;5256;48.728;9.140;2023-02-10T01:35:19;-5.80;99.90
10419;DHT22;5256;48.728;9.140;2023-02-10T01:37:45;-5.70;99.90
10419;DHT22;5256;48.728;9.140;2023-02-10T01:40:10;-5.70;99.90
10419;DHT22;5256;48.728;9.140;2023-02-10T01:42:36;-5.60;99.90
10419;DHT22;5256;48.728;9.140;2023-02-10T01:45:33;-5.60;99.90
10419;DHT22;5256;48.728;9.140;2023-02-10T01:47:59;-5.70;99.90
10419;DHT22;5256;48.728;9.140;2023-02-10T01:50:38;-5.70;99.90
10419;DHT22;5256;48.728;9.140;2023-02-10T01:53:05;-5.60;99.90
10419;DHT22;5256;48.728;9.140;2023-02-10T01:55:33;-5.60;99.90
10419;DHT22;5256;48.728;9.140;2023-02-10T01:58:05;-5.50;99.90
10419;DHT22;5256;48.728;9.140;2023-02-10T02:00:31;-5.40;99.90
10419;DHT22;5256;48.728;9.140;2023-02-10T02:02:57;-5.40;99.90
10419;DHT22;5256;48.728;9.140;2023-02-10T02:05:34;-5.40;99.90
10419;DHT22;5256;48.728;9.140;2023-02-10T02:13:49;-5.60;99.90
10419;DHT22;5256;48.728;9.140;2023-02-10T02:21:51;-5.80;99.90
10419;DHT22;5256;48.728;9.140;2023-02-10T02:26:58;-5.90;99.90
10419;DHT22;5256;48.728;9.140;2023-02-10T02:29:56;-5.90;99.90
10419;DHT22;5256;48.728;9.140;2023-02-10T02:32:32;-5.90;99.90
10419;DHT22;5256;48.728;9.140;2023-02-10T02:35:03;-5.90;99.90
10419;DHT22;5256;48.728;9.140;2023-02-10T02:37:32;-6.00;99.90
10419;DHT22;5256;48.728;9.140;2023-02-10T02:39:59;-6.10;99.90
10419;DHT22;5256;48.728;9.140;2023-02-10T02:42:27;-6.10;99.90
10419;DHT22;5256;48.728;9.140;2023-02-10T02:45:10;-6.20;99.90
10419;DHT22;5256;48.728;9.140;2023-02-10T02:47:43;-6.20;99.90
10419;DHT22;5256;48.728;9.140;2023-02-10T03:01:00;-6.30;99.90
10419;DHT22;5256;48.728;9.140;2023-02-10T03:03:34;-6.30;99.90
10419;DHT22;5256;48.728;9.140;2023-02-10T03:06:00;-6.30;99.90
10419;DHT22;5256;48.728;9.140;2023-02-10T03:08:28;-6.30;99.90
10419;DHT22;5256;48.728;9.140;2023-02-10T03:10:54;-6.30;99.90
10419;DHT22;5256;48.728;9.140;2023-02-10T03:13:20;-6.40;99.90
10419;DHT22;5256;48.728;9.140;2023-02-10T03:15:46;-6.40;99.90
10419;DHT22;5256;48.728;9.140;2023-02-10T03:18:11;-6.40;99.90
10419;DHT22;5256;48.728;9.140;2023-02-10T03:20:38;-6.40;99.90
10419;DHT22;5256;48.728;9.140;2023-02-10T03:23:04;-6.40;99.90
10419;DHT22;5256;48.728;9.140;2023-02-10T03:25:29;-6.40;99.90
10419;DHT22;5256;48.728;9.140;2023-02-10T03:27:55;-6.40;99.90
10419;DHT22;5256;48.728;9.140;2023-02-10T03:30:20;-6.40;99.90
10419;DHT22;5256;48.728;9.140;2023-02-10T03:32:46;-6.40;99.90
10419;DHT22;5256;48.728;9.140;2023-02-10T03:35:14;-6.40;99.90
10419;DHT22;5256;48.728;9.140;2023-02-10T03:37:39;-6.30;99.90
10419;DHT22;5256;48.728;9.140;2023-02-10T03:40:05;-6.30;99.90
10419;DHT22;5256;48.728;9.140;2023-02-10T03:42:30;-6.40;99.90
10419;DHT22;5256;48.728;9.140;2023-02-10T03:44:56;-6.40;99.90
10419;DHT22;5256;48.728;9.140;2023-02-10T03:47:21;-6.40;99.90
10419;DHT22;5256;48.728;9.140;2023-02-10T03:49:47;-6.40;99.90
10419;DHT22;5256;48.728;9.140;2023-02-10T03:52:12;-6.40;99.90
10419;DHT22;5256;48.728;9.140;2023-02-10T03:54:38;-6.40;99.90
10419;DHT22;5256;48.728;9.140;2023-02-10T03:57:04;-6.40;99.90
10419;DHT22;5256;48.728;9.140;2023-02-10T03:59:31;-6.40;99.90
10419;DHT22;5256;48.728;9.140;2023-02-10T04:01:56;-6.40;99.90
10419;DHT22;5256;48.728;9.140;2023-02-10T04:04:22;-6.50;99.90
10419;DHT22;5256;48.728;9.140;2023-02-10T04:06:48;-6.50;99.90
10419;DHT22;5256;48.728;9.140;2023-02-10T04:09:13;-6.50;99.90
10419;DHT22;5256;48.728;9.140;2023-02-10T04:11:39;-6.40;99.90
10419;DHT22;5256;48.728;9.140;2023-02-10T04:14:04;-6.40;99.90
10419;DHT22;5256;48.728;9.140;2023-02-10T04:16:30;-6.50;99.90
10419;DHT22;5256;48.728;9.140;2023-02-10T04:18:57;-6.40;99.90
10419;DHT22;5256;48.728;9.140;2023-02-10T04:21:23;-6.50;99.90
10419;DHT22;5256;48.728;9.140;2023-02-10T04:23:50;-6.40;99.90
10419;DHT22;5256;48.728;9.140;2023-02-10T04:26:15;-6.30;99.90
10419;DHT22;5256;48.728;9.140;2023-02-10T04:28:41;-6.30;99.90
10419;DHT22;5256;48.728;9.140;2023-02-10T04:31:06;-6.20;99.90
10419;DHT22;5256;48.728;9.140;2023-02-10T04:33:33;-6.30;99.90
10419;DHT22;5256;48.728;9.140;2023-02-10T04:35:59;-6.30;99.90
10419;DHT22;5256;48.728;9.140;2023-02-10T04:38:28;-6.20;99.90
10419;DHT22;5256;48.728;9.140;2023-02-10T04:40:53;-6.20;99.90
10419;DHT22;5256;48.728;9.140;2023-02-10T04:43:19;-6.20;99.90
10419;DHT22;5256;48.728;9.140;2023-02-10T04:45:45;-6.20;99.90
10419;DHT22;5256;48.728;9.140;2023-02-10T04:48:10;-6.20;99.90
10419;DHT22;5256;48.728;9.140;2023-02-10T04:50:37;-6.30;99.90
10419;DHT22;5256;48.728;9.140;2023-02-10T04:53:03;-6.20;99.90
10419;DHT22;5256;48.728;9.140;2023-02-10T04:55:29;-6.20;99.90
10419;DHT22;5256;48.728;9.140;2023-02-10T04:57:54;-6.20;99.90
10419;DHT22;5256;48.728;9.140;2023-02-10T05:00:20;-6.20;99.90
10419;DHT22;5256;48.728;9.140;2023-02-10T05:02:45;-6.30;99.90
10419;DHT22;5256;48.728;9.140;2023-02-10T05:05:12;-6.30;99.90
10419;DHT22;5256;48.728;9.140;2023-02-10T05:07:37;-6.30;99.90
10419;DHT22;5256;48.728;9.140;2023-02-10T05:10:04;-6.30;99.90
10419;DHT22;5256;48.728;9.140;2023-02-10T05:12:29;-6.20;99.90
10419;DHT22;5256;48.728;9.140;2023-02-10T05:14:55;-6.20;99.90
10419;DHT22;5256;48.728;9.140;2023-02-10T05:17:20;-6.20;99.90
10419;DHT22;5256;48.728;9.140;2023-02-10T05:19:46;-6.20;99.90
10419;DHT22;5256;48.728;9.140;2023-02-10T05:22:11;-6.20;99.90
10419;DHT22;5256;48.728;9.140;2023-02-10T05:24:37;-6.20;99.90
10419;DHT22;5256;48.728;9.140;2023-02-10T05:27:03;-6.20;99.90
10419;DHT22;5256;48.728;9.140;2023-02-10T05:29:28;-6.20;99.90
10419;DHT22;5256;48.728;9.140;2023-02-10T05:31:54;-6.10;99.90
10419;DHT22;5256;48.728;9.140;2023-02-10T05:34:20;-6.00;99.90
10419;DHT22;5256;48.728;9.140;2023-02-10T05:36:45;-5.90;99.90
10419;DHT22;5256;48.728;9.140;2023-02-10T05:39:11;-6.00;99.90
10419;DHT22;5256;48.728;9.140;2023-02-10T05:41:57;-6.00;99.90
10419;DHT22;5256;48.728;9.140;2023-02-10T05:44:24;-6.10;99.90
10419;DHT22;5256;48.728;9.140;2023-02-10T05:46:50;-6.10;99.90
10419;DHT22;5256;48.728;9.140;2023-02-10T05:49:16;-6.10;99.90
10419;DHT22;5256;48.728;9.140;2023-02-10T05:52:00;-6.10;99.90
10419;DHT22;5256;48.728;9.140;2023-02-10T05:54:26;-6.20;99.90
10419;DHT22;5256;48.728;9.140;2023-02-10T05:56:51;-6.30;99.90
10419;DHT22;5256;48.728;9.140;2023-02-10T05:59:17;-6.30;99.90
10419;DHT22;5256;48.728;9.140;2023-02-10T06:01:43;-6.30;99.90
10419;DHT22;5256;48.728;9.140;2023-02-10T06:04:09;-6.30;99.90
10419;DHT22;5256;48.728;9.140;2023-02-10T06:06:35;-6.30;99.90
10419;DHT22;5256;48.728;9.140;2023-02-10T06:09:00;-6.40;99.90
10419;DHT22;5256;48.728;9.140;2023-02-10T06:11:26;-6.30;99.90
10419;DHT22;5256;48.728;9.140;2023-02-10T06:13:51;-6.30;99.90
10419;DHT22;5256;48.728;9.140;2023-02-10T06:16:17;-6.30;99.90
10419;DHT22;5256;48.728;9.140;2023-02-10T06:18:42;-6.40;99.90
10419;DHT22;5256;48.728;9.140;2023-02-10T06:21:08;-6.30;99.90
10419;DHT22;5256;48.728;9.140;2023-02-10T06:23:34;-6.30;99.90
10419;DHT22;5256;48.728;9.140;2023-02-10T06:26:00;-6.30;99.90
10419;DHT22;5256;48.728;9.140;2023-02-10T06:28:26;-6.30;99.90
10419;DHT22;5256;48.728;9.140;2023-02-10T06:30:52;-6.30;99.90
10419;DHT22;5256;48.728;9.140;2023-02-10T06:33:18;-6.40;99.90
10419;DHT22;5256;48.728;9.140;2023-02-10T06:35:45;-6.40;99.90
10419;DHT22;5256;48.728;9.140;2023-02-10T06:38:10;-6.40;99.90
10419;DHT22;5256;48.728;9.140;2023-02-10T06:40:36;-6.40;99.90
10419;DHT22;5256;48.728;9.140;2023-02-10T06:43:02;-6.50;99.90
10419;DHT22;5256;48.728;9.140;2023-02-10T06:45:28;-6.50;99.90
10419;DHT22;5256;48.728;9.140;2023-02-10T06:47:54;-6.50;99.90
10419;DHT22;5256;48.728;9.140;2023-02-10T06:50:20;-6.50;99.90
10419;DHT22;5256;48.728;9.140;2023-02-10T06:52:46;-6.50;99.90
10419;DHT22;5256;48.728;9.140;2023-02-10T06:55:12;-6.50;99.90
10419;DHT22;5256;48.728;9.140;2023-02-10T06:57:37;-6.40;99.90
10419;DHT22;5256;48.728;9.140;2023-02-10T07:00:05;-6.30;99.90
10419;DHT22;5256;48.728;9.140;2023-02-10T07:02:33;-6.30;99.90
10419;DHT22;5256;48.728;9.140;2023-02-10T07:04:58;-6.20;99.90
10419;DHT22;5256;48.728;9.140;2023-02-10T07:07:24;-6.30;99.90
10419;DHT22;5256;48.728;9.140;2023-02-10T07:09:49;-6.30;99.90
10419;DHT22;5256;48.728;9.140;2023-02-10T07:12:19;-6.20;99.90
10419;DHT22;5256;48.728;9.140;2023-02-10T07:14:44;-6.20;99.90
10419;DHT22;5256;48.728;9.140;2023-02-10T07:17:10;-6.10;99.90
10419;DHT22;5256;48.728;9.140;2023-02-10T07:19:36;-6.10;99.90
10419;DHT22;5256;48.728;9.140;2023-02-10T07:22:01;-6.10;99.90
10419;DHT22;5256;48.728;9.140;2023-02-10T07:24:30;-6.00;99.90
10419;DHT22;5256;48.728;9.140;2023-02-10T07:26:56;-5.90;99.90
10419;DHT22;5256;48.728;9.140;2023-02-10T07:29:22;-5.80;99.90
10419;DHT22;5256;48.728;9.140;2023-02-10T07:31:47;-5.80;99.90
10419;DHT22;5256;48.728;9.140;2023-02-10T07:34:13;-5.80;99.90
10419;DHT22;5256;48.728;9.140;2023-02-10T07:36:39;-5.70;99.90
10419;DHT22;5256;48.728;9.140;2023-02-10T07:39:04;-5.60;99.90
10419;DHT22;5256;48.728;9.140;2023-02-10T07:41:30;-5.50;99.90
10419;DHT22;5256;48.728;9.140;2023-02-10T07:43:56;-5.30;99.90
10419;DHT22;5256;48.728;9.140;2023-02-10T07:46:21;-5.10;99.90
10419;DHT22;5256;48.728;9.140;2023-02-10T07:48:47;-5.00;99.90
10419;DHT22;5256;48.728;9.140;2023-02-10T07:51:12;-4.90;99.90
10419;DHT22;5256;48.728;9.140;2023-02-10T07:53:38;-4.70;99.90
10419;DHT22;5256;48.728;9.140;2023-02-10T07:56:04;-4.50;99.90
10419;DHT22;5256;48.728;9.140;2023-02-10T07:58:30;-4.40;99.90
10419;DHT22;5256;48.728;9.140;2023-02-10T08:00:56;-4.10;99.90
10419;DHT22;5256;48.728;9.140;2023-02-10T08:03:22;-4.00;99.90
10419;DHT22;5256;48.728;9.140;2023-02-10T08:05:48;-3.90;99.90
10419;DHT22;5256;48.728;9.140;2023-02-10T08:08:14;-3.80;99.90
10419;DHT22;5256;48.728;9.140;2023-02-10T08:10:40;-3.60;99.90
10419;DHT22;5256;48.728;9.140;2023-02-10T08:13:06;-3.50;99.90
10419;DHT22;5256;48.728;9.140;2023-02-10T08:15:32;-3.30;99.90
10419;DHT22;5256;48.728;9.140;2023-02-10T08:17:59;-3.20;99.90
10419;DHT22;5256;48.728;9.140;2023-02-10T08:20:25;-3.10;99.90
10419;DHT22;5256;48.728;9.140;2023-02-10T08:22:57;-2.90;99.90
10419;DHT22;5256;48.728;9.140;2023-02-10T08:25:26;-2.90;99.90
10419;DHT22;5256;48.728;9.140;2023-02-10T08:27:52;-2.80;99.90
10419;DHT22;5256;48.728;9.140;2023-02-10T08:30:18;-2.60;99.90
10419;DHT22;5256;48.728;9.140;2023-02-10T08:32:43;-2.50;99.90
10419;DHT22;5256;48.728;9.140;2023-02-10T08:35:09;-2.40;99.90
10419;DHT22;5256;48.728;9.140;2023-02-10T08:37:35;-2.40;99.90
10419;DHT22;5256;48.728;9.140;2023-02-10T08:40:01;-2.30;99.90
10419;DHT22;5256;48.728;9.140;2023-02-10T08:42:27;-2.20;99.90
10419;DHT22;5256;48.728;9.140;2023-02-10T08:44:56;-2.10;99.90
10419;DHT22;5256;48.728;9.140;2023-02-10T08:47:22;-2.00;99.90
10419;DHT22;5256;48.728;9.140;2023-02-10T08:49:48;-1.90;99.90
10419;DHT22;5256;48.728;9.140;2023-02-10T08:52:13;-1.80;99.90
10419;DHT22;5256;48.728;9.140;2023-02-10T08:54:39;-1.70;99.90
10419;DHT22;5256;48.728;9.140;2023-02-10T08:57:05;-1.50;99.90
10419;DHT22;5256;48.728;9.140;2023-02-10T08:59:30;-1.50;99.90
10419;DHT22;5256;48.728;9.140;2023-02-10T09:01:56;-1.30;99.90
10419;DHT22;5256;48.728;9.140;2023-02-10T09:04:21;-1.10;99.90
10419;DHT22;5256;48.728;9.140;2023-02-10T09:06:47;-1.20;99.90
10419;DHT22;5256;48.728;9.140;2023-02-10T09:09:17;-1.20;99.90
10419;DHT22;5256;48.728;9.140;2023-02-10T09:11:44;-1.10;99.90
10419;DHT22;5256;48.728;9.140;2023-02-10T09:14:10;-1.00;99.90
10419;DHT22;5256;48.728;9.140;2023-02-10T09:16:36;-0.90;99.90
10419;DHT22;5256;48.728;9.140;2023-02-10T09:19:02;-0.80;99.90
10419;DHT22;5256;48.728;9.140;2023-02-10T09:21:29;-0.60;99.90
10419;DHT22;5256;48.728;9.140;2023-02-10T09:23:55;-0.60;99.90
10419;DHT22;5256;48.728;9.140;2023-02-10T09:26:21;-0.50;99.90
10419;DHT22;5256;48.728;9.140;2023-02-10T09:28:46;-0.50;99.90
10419;DHT22;5256;48.728;9.140;2023-02-10T09:31:14;-0.40;99.90
10419;DHT22;5256;48.728;9.140;2023-02-10T09:33:41;-0.20;99.90
10419;DHT22;5256;48.728;9.140;2023-02-10T09:36:09;-0.10;99.90
10419;DHT22;5256;48.728;9.140;2023-02-10T09:38:35;0.00;99.90
10419;DHT22;5256;48.728;9.140;2023-02-10T09:41:11;0.10;99.90
10419;DHT22;5256;48.728;9.140;2023-02-10T09:55:01;0.70;99.90
10419;DHT22;5256;48.728;9.140;2023-02-10T09:57:30;0.70;99.90
10419;DHT22;5256;48.728;9.140;2023-02-10T09:59:58;1.00;99.90
10419;DHT22;5256;48.728;9.140;2023-02-10T10:02:31;1.20;99.90
10419;DHT22;5256;48.728;9.140;2023-02-10T10:04:59;1.30;99.90
10419;DHT22;5256;48.728;9.140;2023-02-10T10:07:35;1.40;99.90
10419;DHT22;5256;48.728;9.140;2023-02-10T10:10:36;1.40;99.90
10419;DHT22;5256;48.728;9.140;2023-02-10T10:13:18;1.50;99.90
10419;DHT22;5256;48.728;9.140;2023-02-10T10:15:58;1.70;99.90
10419;DHT22;5256;48.728;9.140;2023-02-10T10:18:30;2.00;99.90
10419;DHT22;5256;48.728;9.140;2023-02-10T10:21:10;2.00;99.90
10419;DHT22;5256;48.728;9.140;2023-02-10T10:23:55;2.20;99.90
10419;DHT22;5256;48.728;9.140;2023-02-10T10:29:43;2.50;99.90
10419;DHT22;5256;48.728;9.140;2023-02-10T10:32:17;2.40;99.90
10419;DHT22;5256;48.728;9.140;2023-02-10T10:34:56;2.40;99.90
10419;DHT22;5256;48.728;9.140;2023-02-10T10:37:26;2.50;99.90
10419;DHT22;5256;48.728;9.140;2023-02-10T10:40:03;2.60;99.90
10419;DHT22;5256;48.728;9.140;2023-02-10T10:45:19;2.80;99.90
10419;DHT22;5256;48.728;9.140;2023-02-10T10:47:50;2.70;99.90
10419;DHT22;5256;48.728;9.140;2023-02-10T10:50:20;2.70;99.90
10419;DHT22;5256;48.728;9.140;2023-02-10T10:52:50;2.90;99.90
10419;DHT22;5256;48.728;9.140;2023-02-10T10:55:38;3.00;99.90
10419;DHT22;5256;48.728;9.140;2023-02-10T11:01:10;3.00;99.90
10419;DHT22;5256;48.728;9.140;2023-02-10T11:03:36;3.10;99.90
10419;DHT22;5256;48.728;9.140;2023-02-10T11:06:06;2.90;99.90
10419;DHT22;5256;48.728;9.140;2023-02-10T11:11:10;3.00;99.90
10419;DHT22;5256;48.728;9.140;2023-02-10T11:13:38;3.10;99.90
10419;DHT22;5256;48.728;9.140;2023-02-10T11:16:10;3.20;99.90
10419;DHT22;5256;48.728;9.140;2023-02-10T11:18:38;3.40;99.90
10419;DHT22;5256;48.728;9.140;2023-02-10T11:21:06;3.60;99.90
10419;DHT22;5256;48.728;9.140;2023-02-10T11:23:51;3.50;99.90
10419;DHT22;5256;48.728;9.140;2023-02-10T11:26:25;3.50;99.90
10419;DHT22;5256;48.728;9.140;2023-02-10T11:28:52;3.70;99.90
10419;DHT22;5256;48.728;9.140;2023-02-10T11:31:22;3.80;99.90
10419;DHT22;5256;48.728;9.140;2023-02-10T11:34:00;3.70;99.90
10419;DHT22;5256;48.728;9.140;2023-02-10T11:36:44;3.60;99.90
10419;DHT22;5256;48.728;9.140;2023-02-10T11:39:33;3.50;99.90
10419;DHT22;5256;48.728;9.140;2023-02-10T11:42:18;3.80;99.90
10419;DHT22;5256;48.728;9.140;2023-02-10T11:47:31;3.90;99.90
10419;DHT22;5256;48.728;9.140;2023-02-10T11:50:00;3.80;99.90
10419;DHT22;5256;48.728;9.140;2023-02-10T11:52:27;3.90;99.90
10419;DHT22;5256;48.728;9.140;2023-02-10T11:54:55;3.80;99.90
10419;DHT22;5256;48.728;9.140;2023-02-10T12:01:03;3.80;99.90
10419;DHT22;5256;48.728;9.140;2023-02-10T12:06:12;4.00;99.90
10419;DHT22;5256;48.728;9.140;2023-02-10T12:11:42;4.30;99.90
10419;DHT22;5256;48.728;9.140;2023-02-10T12:16:55;4.20;99.90
10419;DHT22;5256;48.728;9.140;2023-02-10T12:23:25;4.10;99.90
10419;DHT22;5256;48.728;9.140;2023-02-10T12:31:44;4.00;99.90
10419;DHT22;5256;48.728;9.140;2023-02-10T12:37:29;4.00;99.90
10419;DHT22;5256;48.728;9.140;2023-02-10T12:45:48;4.00;99.90
10419;DHT22;5256;48.728;9.140;2023-02-10T12:51:42;4.20;99.90
10419;DHT22;5256;48.728;9.140;2023-02-10T12:56:41;4.30;99.90
10419;DHT22;5256;48.728;9.140;2023-02-10T12:59:23;4.30;99.90
10419;DHT22;5256;48.728;9.140;2023-02-10T13:01:59;4.10;99.90
10419;DHT22;5256;48.728;9.140;2023-02-10T13:04:41;4.10;99.90
10419;DHT22;5256;48.728;9.140;2023-02-10T13:12:39;4.30;99.90
10419;DHT22;5256;48.728;9.140;2023-02-10T13:15:24;4.40;99.90
10419;DHT22;5256;48.728;9.140;2023-02-10T13:17:51;4.20;99.90
10419;DHT22;5256;48.728;9.140;2023-02-10T13:20:33;4.30;99.90
10419;DHT22;5256;48.728;9.140;2023-02-10T13:25:46;4.20;99.90
10419;DHT22;5256;48.728;9.140;2023-02-10T13:28:33;4.40;99.90
10419;DHT22;5256;48.728;9.140;2023-02-10T13:31:06;4.50;99.90
10419;DHT22;5256;48.728;9.140;2023-02-10T13:34:25;4.60;99.90
10419;DHT22;5256;48.728;9.140;2023-02-10T13:37:21;4.60;99.90
10419;DHT22;5256;48.728;9.140;2023-02-10T13:39:53;4.40;99.90
10419;DHT22;5256;48.728;9.140;2023-02-10T13:42:34;4.50;99.90
10419;DHT22;5256;48.728;9.140;2023-02-10T13:45:02;4.50;99.90
10419;DHT22;5256;48.728;9.140;2023-02-10T13:47:34;4.50;99.90
10419;DHT22;5256;48.728;9.140;2023-02-10T13:53:03;4.60;99.90
10419;DHT22;5256;48.728;9.140;2023-02-10T14:00:30;4.50;99.90
10419;DHT22;5256;48.728;9.140;2023-02-10T14:08:31;4.60;99.90
10419;DHT22;5256;48.728;9.140;2023-02-10T14:14:15;4.40;99.90
10419;DHT22;5256;48.728;9.140;2023-02-10T14:16:42;4.50;99.90
10419;DHT22;5256;48.728;9.140;2023-02-10T14:19:39;4.40;99.90
10419;DHT22;5256;48.728;9.140;2023-02-10T14:22:17;4.40;99.90
10419;DHT22;5256;48.728;9.140;2023-02-10T14:24:44;4.40;99.90
10419;DHT22;5256;48.728;9.140;2023-02-10T14:27:13;4.30;99.90
10419;DHT22;5256;48.728;9.140;2023-02-10T14:29:46;4.30;99.90
10419;DHT22;5256;48.728;9.140;2023-02-10T14:32:14;4.40;99.90
10419;DHT22;5256;48.728;9.140;2023-02-10T14:34:40;4.30;99.90
10419;DHT22;5256;48.728;9.140;2023-02-10T14:37:19;4.40;99.90
10419;DHT22;5256;48.728;9.140;2023-02-10T14:39:51;4.40;99.90
10419;DHT22;5256;48.728;9.140;2023-02-10T14:42:17;4.60;99.90
10419;DHT22;5256;48.728;9.140;2023-02-10T14:44:45;4.60;99.90
10419;DHT22;5256;48.728;9.140;2023-02-10T14:47:20;4.60;99.90
10419;DHT22;5256;48.728;9.140;2023-02-10T14:49:52;4.50;99.90
10419;DHT22;5256;48.728;9.140;2023-02-10T14:54:49;4.40;99.90
10419;DHT22;5256;48.728;9.140;2023-02-10T14:57:16;4.40;99.90
10419;DHT22;5256;48.728;9.140;2023-02-10T14:59:43;4.40;99.90
10419;DHT22;5256;48.728;9.140;2023-02-10T15:02:20;4.40;99.90
10419;DHT22;5256;48.728;9.140;2023-02-10T15:04:49;4.30;99.90
10419;DHT22;5256;48.728;9.140;2023-02-10T15:07:38;4.30;99.90
10419;DHT22;5256;48.728;9.140;2023-02-10T15:12:38;4.30;99.90
10419;DHT22;5256;48.728;9.140;2023-02-10T15:17:42;4.30;99.90
10419;DHT22;5256;48.728;9.140;2023-02-10T15:22:48;4.20;99.90
10419;DHT22;5256;48.728;9.140;2023-02-10T15:25:34;4.10;99.90
10419;DHT22;5256;48.728;9.140;2023-02-10T15:33:17;4.10;99.90
10419;DHT22;5256;48.728;9.140;2023-02-10T15:36:03;4.10;99.90
10419;DHT22;5256;48.728;9.140;2023-02-10T15:38:31;4.00;99.90
10419;DHT22;5256;48.728;9.140;2023-02-10T15:40:57;3.90;99.90
10419;DHT22;5256;48.728;9.140;2023-02-10T15:43:24;3.80;99.90
10419;DHT22;5256;48.728;9.140;2023-02-10T15:45:50;3.70;99.90
10419;DHT22;5256;48.728;9.140;2023-02-10T15:48:21;3.60;99.90
10419;DHT22;5256;48.728;9.140;2023-02-10T15:50:48;3.50;99.90
10419;DHT22;5256;48.728;9.140;2023-02-10T15:53:19;3.30;99.90
10419;DHT22;5256;48.728;9.140;2023-02-10T15:55:47;3.20;99.90
10419;DHT22;5256;48.728;9.140;2023-02-10T15:58:13;3.20;99.90
10419;DHT22;5256;48.728;9.140;2023-02-10T16:00:39;3.10;99.90
10419;DHT22;5256;48.728;9.140;2023-02-10T16:03:07;3.00;99.90
10419;DHT22;5256;48.728;9.140;2023-02-10T16:05:35;2.90;99.90
10419;DHT22;5256;48.728;9.140;2023-02-10T16:08:30;2.80;99.90
10419;DHT22;5256;48.728;9.140;2023-02-10T16:10:55;2.60;99.90
10419;DHT22;5256;48.728;9.140;2023-02-10T16:13:20;2.40;99.90
10419;DHT22;5256;48.728;9.140;2023-02-10T16:15:47;2.30;99.90
10419;DHT22;5256;48.728;9.140;2023-02-10T16:18:16;2.20;99.90
10419;DHT22;5256;48.728;9.140;2023-02-10T16:20:43;2.00;99.90
10419;DHT22;5256;48.728;9.140;2023-02-10T16:23:13;2.00;99.90
10419;DHT22;5256;48.728;9.140;2023-02-10T16:25:40;2.00;99.90
10419;DHT22;5256;48.728;9.140;2023-02-10T16:28:06;2.00;99.90
10419;DHT22;5256;48.728;9.140;2023-02-10T16:30:32;1.90;99.90
10419;DHT22;5256;48.728;9.140;2023-02-10T16:32:59;1.80;99.90
10419;DHT22;5256;48.728;9.140;2023-02-10T16:35:25;1.60;99.90
10419;DHT22;5256;48.728;9.140;2023-02-10T16:37:52;1.40;99.90
10419;DHT22;5256;48.728;9.140;2023-02-10T16:40:30;1.30;99.90
10419;DHT22;5256;48.728;9.140;2023-02-10T16:42:56;1.10;99.90
10419;DHT22;5256;48.728;9.140;2023-02-10T16:45:27;1.00;99.90
10419;DHT22;5256;48.728;9.140;2023-02-10T16:47:54;0.90;99.90
10419;DHT22;5256;48.728;9.140;2023-02-10T16:50:34;0.80;99.90
10419;DHT22;5256;48.728;9.140;2023-02-10T16:53:00;0.70;99.90
10419;DHT22;5256;48.728;9.140;2023-02-10T16:55:26;0.60;99.90
10419;DHT22;5256;48.728;9.140;2023-02-10T16:57:52;0.50;99.90
10419;DHT22;5256;48.728;9.140;2023-02-10T17:00:20;0.40;99.90
10419;DHT22;5256;48.728;9.140;2023-02-10T17:02:46;0.20;99.90
10419;DHT22;5256;48.728;9.140;2023-02-10T17:05:13;0.20;99.90
10419;DHT22;5256;48.728;9.140;2023-02-10T17:07:39;0.20;99.90
10419;DHT22;5256;48.728;9.140;2023-02-10T17:10:07;0.10;99.90
10419;DHT22;5256;48.728;9.140;2023-02-10T17:12:33;0.00;99.90
10419;DHT22;5256;48.728;9.140;2023-02-10T17:14:58;0.10;99.90
10419;DHT22;5256;48.728;9.140;2023-02-10T17:17:24;0.10;99.90
10419;DHT22;5256;48.728;9.140;2023-02-10T17:19:49;0.00;99.90
10419;DHT22;5256;48.728;9.140;2023-02-10T17:22:15;0.00;99.90
10419;DHT22;5256;48.728;9.140;2023-02-10T17:24:41;-0.10;99.90
10419;DHT22;5256;48.728;9.140;2023-02-10T17:27:09;0.00;99.90
10419;DHT22;5256;48.728;9.140;2023-02-10T17:29:35;-0.10;99.90
10419;DHT22;5256;48.728;9.140;2023-02-10T17:32:00;-0.10;99.90
10419;DHT22;5256;48.728;9.140;2023-02-10T17:34:33;0.00;99.90
10419;DHT22;5256;48.728;9.140;2023-02-10T17:37:02;-0.10;99.90
10419;DHT22;5256;48.728;9.140;2023-02-10T17:39:31;-0.10;99.90
10419;DHT22;5256;48.728;9.140;2023-02-10T17:41:59;-0.10;99.90
10419;DHT22;5256;48.728;9.140;2023-02-10T17:44:25;-0.20;99.90
10419;DHT22;5256;48.728;9.140;2023-02-10T17:46:51;-0.30;99.90
10419;DHT22;5256;48.728;9.140;2023-02-10T17:49:21;-0.50;99.90
10419;DHT22;5256;48.728;9.140;2023-02-10T17:51:47;-0.50;99.90
10419;DHT22;5256;48.728;9.140;2023-02-10T17:54:12;-0.50;99.90
10419;DHT22;5256;48.728;9.140;2023-02-10T17:56:44;-0.50;99.90
10419;DHT22;5256;48.728;9.140;2023-02-10T17:59:09;-0.50;99.90
10419;DHT22;5256;48.728;9.140;2023-02-10T18:01:36;-0.60;99.90
10419;DHT22;5256;48.728;9.140;2023-02-10T18:04:02;-0.60;99.90
10419;DHT22;5256;48.728;9.140;2023-02-10T18:06:28;-0.70;99.90
10419;DHT22;5256;48.728;9.140;2023-02-10T18:08:55;-0.80;99.90
10419;DHT22;5256;48.728;9.140;2023-02-10T18:11:22;-0.80;99.90